Observations for ST. NAZAIRE MONTOIR, France (LFRZ)

LFRZ 200730Z AUTO VRB03KT 4000 BR FEW004 OVC049 07/06 Q1034 BECMG 9999 NSW  
LFRZ 200700Z AUTO 07002KT 3500 BR FEW003 OVC050 06/06 Q1034 TEMPO VV/// BECMG 9999 NSW  
LFRZ 200630Z AUTO 08003KT 030V120 2700 BR FEW002 OVC050 06/05 Q1033 TEMPO VV/// BECMG 9999 NSW  
LFRZ 200600Z AUTO 08004KT 050V110 3900 BR NSC 05/04 Q1033 TEMPO 0400 FG VV///   
LFRZ 200530Z AUTO VRB02KT 4800 BR NSC 05/05 Q1033 TEMPO 0400 FG VV///   
LFRZ 200500Z AUTO 08002KT 3200 BR NSC 06/05 Q1033 TEMPO 0400 FG VV///   
LFRZ 200430Z AUTO 00000KT 0800 R25/1200U FG NSC 06/05 Q1033 TEMPO 0400 FG VV/// 
LFRZ 200400Z AUTO 00000KT 0800 0650 R25/1200U FG NSC 05/05 Q1033 TEMPO 0400 FG VV///
LFRZ 200330Z AUTO 00000KT 1400 1200 R25/1700N BR NSC 06/05 Q1033 TEMPO 0400 FG VV///
LFRZ 200300Z AUTO VRB02KT 1700 R25/1000U BCFG NSC 05/04 Q1033 TEMPO 0400 FG VV///   
LFRZ 200230Z AUTO 08002KT 0900 0700 R25/0900D FG NSC 05/04 Q1033 TEMPO 0400 FG VV///
LFRZ 200200Z AUTO 00000KT 0650 0550 R25/0900D FG NSC 05/04 Q1033 TEMPO 0400 FG VV///
LFRZ 200130Z AUTO 22001KT 5000 0650 R25/P2000 BCFG NSC 06/04 Q1033 TEMPO 0400 FG VV///  
LFRZ 200100Z AUTO 17001KT 9999 2400 NSC 06/05 Q1033 TEMPO 0400 FG VV/// 
LFRZ 200030Z AUTO 14002KT CAVOK 07/06 Q1033 TEMPO 0400 FG VV/// 
LFRZ 200000Z AUTO 20003KT CAVOK 07/05 Q1033 TEMPO 3000 BR BKN003
LFRZ 192330Z AUTO VRB03KT CAVOK 09/07 Q1033 TEMPO 3000 BR BKN003
LFRZ 192300Z AUTO VRB03KT CAVOK 09/07 Q1033 TEMPO 0800 BCFG 
LFRZ 192230Z AUTO 29003KT CAVOK 09/07 Q1033 TEMPO 0800 BCFG 
LFRZ 192200Z AUTO 28004KT CAVOK 09/07 Q1033 NOSIG   
LFRZ 192130Z AUTO 28003KT CAVOK 08/06 Q1033 NOSIG   
LFRZ 192100Z AUTO 24002KT CAVOK 08/06 Q1032 NOSIG   
LFRZ 192030Z AUTO VRB03KT CAVOK 08/06 Q1032 NOSIG   
LFRZ 192000Z AUTO 29004KT CAVOK 09/07 Q1032 NOSIG   
LFRZ 191930Z AUTO 29005KT CAVOK 10/06 Q1032 NOSIG   
LFRZ 191900Z AUTO 29005KT 9999 BKN045 OVC052 10/06 Q1031 NOSIG  
LFRZ 191830Z AUTO 29005KT 9999 OVC048 10/06 Q1031 NOSIG 
LFRZ 191800Z AUTO 29005KT 9999 FEW026 OVC052 10/06 Q1031 NOSIG  
LFRZ 191730Z AUTO 29005KT 9999 SCT027 OVC052 11/05 Q1031 NOSIG  
LFRZ 191700Z AUTO 29004KT 250V330 9999 FEW028 OVC052 11/05 Q1030 NOSIG  
LFRZ 191630Z AUTO 28004KT 240V320 CAVOK 11/06 Q1030 NOSIG   
LFRZ 191600Z AUTO 28004KT 260V320 9999 FEW037 SCT045 OVC052 11/05 Q1030 TEMPO 4000 SHRA SCT026TCU   
LFRZ 191530Z AUTO 29004KT 260V340 CAVOK 11/06 Q1030 TEMPO 4000 SHRA SCT026TCU   
LFRZ 191500Z AUTO 33003KT 290V360 9999 FEW009 OVC047 11/05 Q1030 TEMPO 4000 SHRA SCT026TCU  
LFRZ 191430Z AUTO 30004KT 260V010 9999 FEW028 BKN037 BKN043 11/05 Q1030 TEMPO 4000 SHRA SCT026TCU   
LFRZ 191400Z AUTO 28004KT 230V320 9999 OVC046 11/05 Q1030 TEMPO 4000 SHRA SCT026TCU 
LFRZ 191330Z AUTO 26003KT 210V320 9999 FEW028 OVC048 11/05 Q1030 TEMPO 4000 SHRA SCT026TCU  
LFRZ 191300Z AUTO 30004KT 250V010 9999 SCT027 OVC048 11/05 Q1030 TEMPO 4000 SHRA SCT026TCU  
LFRZ 191230Z AUTO 27005KT 240V310 9999 SCT028 OVC045 11/05 Q1030 TEMPO 4000 SHRA SCT026TCU  
LFRZ 191200Z AUTO 29003KT 230V330 9999 FEW037 OVC046 11/05 Q1030 NOSIG  
LFRZ 191130Z AUTO 33003KT 260V010 9999 OVC031 10/04 Q1030 NOSIG 
LFRZ 191100Z AUTO 30005KT 260V010 9999 SCT024 OVC030 10/05 Q1030 NOSIG  
LFRZ 191030Z AUTO VRB03KT 9999 SCT022 BKN034 11/07 Q1030 NOSIG  
LFRZ 191000Z AUTO VRB03KT 9999 BKN018 OVC036 10/07 Q1030 NOSIG  
LFRZ 190930Z AUTO VRB02KT 9999 OVC038 09/07 Q1030 NOSIG 
LFRZ 190900Z AUTO VRB03KT 9999 OVC037 09/07 Q1029 NOSIG 
LFRZ 190830Z AUTO 03003KT 350V090 9999 OVC039 08/07 Q1029 NOSIG 
LFRZ 190800Z AUTO 02004KT 350V050 9999 BKN038 OVC044 08/07 Q1029 NOSIG  
LFRZ 190730Z AUTO VRB02KT 9999 OVC038 07/06 Q1029 NOSIG 
LFRZ 190700Z AUTO VRB02KT 9999 OVC040 07/06 Q1028 TEMPO 2500 BR